createdAt,value
2023-03-17T00:01:59.906Z,77.90
2023-03-17T00:05:05.962Z,76.28
2023-03-17T00:08:13.921Z,71.00
2023-03-17T00:11:20.656Z,70.62
2023-03-17T00:14:27.238Z,70.32
2023-03-17T00:17:32.352Z,76.77
2023-03-17T00:20:46.411Z,69.17
2023-03-17T00:23:53.076Z,77.05
2023-03-17T00:26:57.988Z,68.83
2023-03-17T00:30:07.180Z,75.20
2023-03-17T00:33:14.314Z,70.30
2023-03-17T00:36:20.548Z,58.85
2023-03-17T00:39:29.212Z,70.10
2023-03-17T00:42:36.013Z,70.65
2023-03-17T00:45:41.649Z,61.77
2023-03-17T00:48:47.474Z,64.47
2023-03-17T00:51:53.560Z,64.82
2023-03-17T00:55:00.965Z,56.65
2023-03-17T00:58:06.484Z,58.38
2023-03-17T01:01:11.888Z,57.88
2023-03-17T01:04:20.056Z,57.53
2023-03-17T01:07:26.776Z,62.40
2023-03-17T01:10:36.602Z,59.93
2023-03-17T01:13:43.345Z,62.62
2023-03-17T01:16:51.246Z,64.32
2023-03-17T01:19:56.796Z,62.10
2023-03-17T01:23:03.968Z,62.95
2023-03-17T01:26:10.246Z,65.78
2023-03-17T01:29:15.866Z,71.05
2023-03-17T01:32:21.758Z,66.85
2023-03-17T01:35:22.094Z,71.90
2023-03-17T01:38:29.509Z,76.07
2023-03-17T01:41:35.145Z,72.92
2023-03-17T01:44:41.164Z,72.70
2023-03-17T01:47:41.332Z,78.62
2023-03-17T01:50:47.494Z,76.33
2023-03-17T01:53:54.360Z,73.95
2023-03-17T01:57:00.835Z,65.30
2023-03-17T02:00:12.836Z,69.77
2023-03-17T02:03:19.142Z,62.50
2023-03-17T02:06:25.845Z,67.62
2023-03-17T02:09:32.155Z,71.45
2023-03-17T02:12:37.467Z,68.85
2023-03-17T02:15:54.931Z,66.42
2023-03-17T02:19:01.595Z,69.10
2023-03-17T02:22:11.898Z,58.83
2023-03-17T02:25:17.943Z,61.18
2023-03-17T02:28:37.751Z,63.05
2023-03-17T02:31:43.103Z,55.40
2023-03-17T02:34:49.604Z,53.55
2023-03-17T02:37:55.728Z,52.10
2023-03-17T02:41:01.134Z,60.43
2023-03-17T02:44:06.788Z,66.97
2023-03-17T02:47:11.652Z,70.00
2023-03-17T02:50:10.925Z,80.30
2023-03-17T02:53:16.972Z,74.03
2023-03-17T02:56:22.608Z,76.67
2023-03-17T02:59:29.411Z,76.62
2023-03-17T03:02:35.562Z,92.80
2023-03-17T03:05:43.250Z,84.30
2023-03-17T03:08:50.534Z,86.05
2023-03-17T03:11:57.051Z,90.62
2023-03-17T03:15:02.303Z,79.40
2023-03-17T03:18:08.091Z,95.30
2023-03-17T03:21:13.517Z,86.45
2023-03-17T03:24:20.666Z,83.33
2023-03-17T03:27:26.325Z,87.78
2023-03-17T03:30:33.847Z,90.80
2023-03-17T03:33:40.142Z,86.40
2023-03-17T03:36:46.363Z,92.95
2023-03-17T03:39:51.529Z,84.70
2023-03-17T03:42:57.015Z,80.53
2023-03-17T03:46:03.543Z,85.65
2023-03-17T03:49:08.878Z,70.52
2023-03-17T03:52:07.995Z,78.00
2023-03-17T03:55:13.566Z,74.70
2023-03-17T03:58:18.750Z,64.55
2023-03-17T04:01:24.947Z,72.45
2023-03-17T04:04:31.193Z,60.17
2023-03-17T04:07:36.377Z,71.62
2023-03-17T04:10:43.443Z,74.40
2023-03-17T04:13:49.005Z,71.67
2023-03-17T04:16:55.527Z,55.58
2023-03-17T04:20:00.983Z,62.95
2023-03-17T04:23:06.069Z,73.37
2023-03-17T04:26:12.068Z,66.53
2023-03-17T04:29:20.047Z,58.78
2023-03-17T04:32:27.865Z,61.90
2023-03-17T04:35:35.974Z,60.65
2023-03-17T04:38:42.480Z,56.77
2023-03-17T04:41:48.402Z,56.98
2023-03-17T04:44:54.564Z,54.30
2023-03-17T04:48:00.955Z,47.98
2023-03-17T04:51:07.082Z,55.73
2023-03-17T04:54:07.417Z,47.93
2023-03-17T04:57:00.284Z,46.42
2023-03-17T05:00:05.705Z,44.73
2023-03-17T05:03:26.018Z,50.08
2023-03-17T05:06:19.537Z,44.42
2023-03-17T05:09:24.629Z,43.95
2023-03-17T05:12:34.215Z,43.40
2023-03-17T05:15:39.719Z,42.83
2023-03-17T05:18:45.598Z,43.87
2023-03-17T05:21:51.272Z,47.15
2023-03-17T05:24:56.970Z,42.40
2023-03-17T05:28:03.260Z,42.73
2023-03-17T05:31:11.163Z,46.00
2023-03-17T05:34:17.459Z,43.65
2023-03-17T05:37:24.821Z,45.67
2023-03-17T05:40:31.389Z,43.13
2023-03-17T05:43:37.702Z,51.23
2023-03-17T05:46:42.600Z,53.85
2023-03-17T05:49:50.211Z,45.90
2023-03-17T05:52:58.690Z,47.53
2023-03-17T05:56:05.214Z,52.75
2023-03-17T05:59:11.681Z,53.15
2023-03-17T06:02:17.966Z,61.10
2023-03-17T06:05:24.482Z,57.23
2023-03-17T06:08:31.333Z,46.70
2023-03-17T06:11:38.123Z,48.15
2023-03-17T06:14:43.655Z,56.48
2023-03-17T06:17:49.614Z,50.45
2023-03-17T06:20:55.566Z,43.48
2023-03-17T06:24:00.483Z,45.12
2023-03-17T06:27:06.990Z,40.28
2023-03-17T06:30:13.042Z,39.23
2023-03-17T06:33:12.317Z,34.75
2023-03-17T06:36:19.020Z,30.48
2023-03-17T06:39:24.739Z,30.62
2023-03-17T06:42:30.520Z,31.90
2023-03-17T06:45:36.296Z,34.67
2023-03-17T06:48:41.407Z,24.37
2023-03-17T06:51:47.028Z,25.27
2023-03-17T06:54:53.533Z,29.45
2023-03-17T06:57:59.311Z,33.20
2023-03-17T07:01:07.021Z,31.95
2023-03-17T07:04:13.704Z,28.85
2023-03-17T07:07:20.413Z,32.88
2023-03-17T07:10:26.223Z,39.23
2023-03-17T07:13:25.852Z,33.13
2023-03-17T07:16:31.179Z,34.92
2023-03-17T07:19:38.004Z,42.80
2023-03-17T07:22:44.254Z,45.58
2023-03-17T07:25:52.080Z,36.98
2023-03-17T07:28:59.844Z,42.78
2023-03-17T07:32:05.870Z,41.92
2023-03-17T07:35:12.061Z,43.33
2023-03-17T07:38:20.012Z,41.02
2023-03-17T07:41:18.570Z,51.48
2023-03-17T07:44:26.967Z,39.70
2023-03-17T07:47:25.552Z,46.50
2023-03-17T07:50:18.326Z,46.75
2023-03-17T07:53:23.610Z,58.33
2023-03-17T07:56:29.248Z,57.48
2023-03-17T07:59:35.911Z,55.95
2023-03-17T08:02:41.797Z,57.35
2023-03-17T08:05:48.154Z,64.03
2023-03-17T08:08:53.949Z,47.10
2023-03-17T08:11:59.446Z,44.77
2023-03-17T08:15:04.968Z,53.92
2023-03-17T08:18:10.461Z,43.85
2023-03-17T08:21:16.242Z,53.10
2023-03-17T08:24:22.198Z,43.63
2023-03-17T08:27:33.911Z,38.05
2023-03-17T08:30:41.785Z,48.78
2023-03-17T08:33:47.383Z,62.88
2023-03-17T08:36:53.645Z,45.35
2023-03-17T08:39:58.814Z,48.40
2023-03-17T08:43:04.526Z,58.90
2023-03-17T08:46:15.057Z,48.95
2023-03-17T08:49:21.926Z,47.65
2023-03-17T08:52:28.252Z,53.02
2023-03-17T08:55:37.254Z,54.73
2023-03-17T08:58:45.133Z,57.93
2023-03-17T09:01:53.347Z,62.25
2023-03-17T09:05:01.227Z,51.48
2023-03-17T09:08:10.361Z,57.08
2023-03-17T09:11:17.112Z,48.13
2023-03-17T09:14:23.202Z,43.63
2023-03-17T09:17:28.997Z,38.45
2023-03-17T09:20:33.990Z,52.25
2023-03-17T09:23:40.731Z,45.05
2023-03-17T09:26:48.623Z,78.22
2023-03-17T09:29:55.952Z,72.55
2023-03-17T09:33:01.836Z,77.72
2023-03-17T09:36:08.315Z,82.60
2023-03-17T09:39:13.674Z,87.05
2023-03-17T09:42:35.157Z,114.47
2023-03-17T09:45:56.136Z,82.33
2023-03-17T09:49:09.282Z,99.77
2023-03-17T09:52:15.060Z,65.37
2023-03-17T09:55:21.647Z,53.10
2023-03-17T09:58:26.775Z,65.45
2023-03-17T10:01:32.863Z,46.92
2023-03-17T10:04:39.489Z,37.20
2023-03-17T10:07:59.049Z,30.27
2023-03-17T10:11:39.873Z,27.75
2023-03-17T10:18:29.673Z,31.37
2023-03-17T10:21:39.213Z,39.40
2023-03-17T10:27:51.426Z,31.85
2023-03-17T10:30:57.788Z,32.33
2023-03-17T10:34:05.472Z,32.33
2023-03-17T10:37:11.295Z,34.58
2023-03-17T10:40:22.242Z,36.28
2023-03-17T10:43:34.271Z,36.23
2023-03-17T10:46:43.197Z,38.13
2023-03-17T10:49:52.609Z,34.63
2023-03-17T10:52:59.543Z,33.30
2023-03-17T10:56:01.205Z,28.73
2023-03-17T10:59:07.763Z,28.90
2023-03-17T11:02:16.377Z,36.08
2023-03-17T11:05:36.065Z,33.38
2023-03-17T11:08:52.792Z,28.07
2023-03-17T11:12:02.469Z,25.82
2023-03-17T11:15:18.181Z,28.65
2023-03-17T11:18:44.758Z,29.48
2023-03-17T11:22:01.189Z,29.65
2023-03-17T11:25:26.295Z,31.90
2023-03-17T11:28:41.159Z,29.30
2023-03-17T11:31:51.876Z,31.55
2023-03-17T11:35:07.678Z,25.85
2023-03-17T11:38:45.283Z,24.65
2023-03-17T11:42:18.265Z,28.52
2023-03-17T11:45:37.857Z,24.18
2023-03-17T11:48:59.839Z,23.75
2023-03-17T11:52:36.649Z,24.52
2023-03-17T11:56:23.277Z,24.23
2023-03-17T12:00:07.694Z,18.57
2023-03-17T12:03:52.864Z,18.52
2023-03-17T12:07:05.014Z,20.55
2023-03-17T12:10:40.615Z,21.87
2023-03-17T12:14:12.383Z,19.80
2023-03-17T12:17:33.828Z,22.15
2023-03-17T12:21:12.585Z,19.87
2023-03-17T12:24:27.966Z,21.50
2023-03-17T12:27:50.144Z,22.62
2023-03-17T12:31:12.924Z,20.70
2023-03-17T12:34:35.303Z,18.73
2023-03-17T12:37:37.073Z,23.02
2023-03-17T12:40:50.980Z,19.02
2023-03-17T12:44:22.681Z,16.57
2023-03-17T12:47:54.891Z,17.92
2023-03-17T12:51:43.240Z,22.42
2023-03-17T12:54:51.505Z,24.07
2023-03-17T12:58:21.119Z,23.85
2023-03-17T13:01:55.713Z,24.50
2023-03-17T13:05:08.022Z,26.23
2023-03-17T13:08:17.590Z,22.35
2023-03-17T13:11:42.281Z,21.73
2023-03-17T13:15:01.962Z,23.30
2023-03-17T13:18:28.489Z,21.97
2023-03-17T13:21:36.582Z,24.37
2023-03-17T13:25:02.270Z,20.52
2023-03-17T13:28:10.425Z,24.75
2023-03-17T13:31:45.930Z,22.67
2023-03-17T13:35:03.248Z,30.82
2023-03-17T13:38:26.328Z,38.30
2023-03-17T13:42:01.102Z,32.33
2023-03-17T13:45:46.979Z,29.18
2023-03-17T13:48:52.762Z,29.37
2023-03-17T13:52:00.849Z,27.30
2023-03-17T13:55:17.101Z,26.02
2023-03-17T13:58:27.280Z,28.40
2023-03-17T14:01:32.690Z,23.62
2023-03-17T14:04:42.484Z,26.15
2023-03-17T14:08:05.160Z,24.27
2023-03-17T14:11:13.875Z,25.75
2023-03-17T14:14:47.036Z,25.17
2023-03-17T14:18:02.670Z,24.67
2023-03-17T14:21:17.216Z,23.60
2023-03-17T14:24:39.801Z,26.07
2023-03-17T14:27:46.814Z,20.43
2023-03-17T14:30:52.925Z,21.30
2023-03-17T14:33:59.776Z,22.30
2023-03-17T14:37:06.771Z,34.03
2023-03-17T14:40:12.647Z,30.20
2023-03-17T14:43:19.696Z,28.42
2023-03-17T14:46:47.654Z,26.87
2023-03-17T14:49:54.005Z,31.12
2023-03-17T14:53:00.200Z,28.60
2023-03-17T14:56:07.004Z,29.67
2023-03-17T14:59:15.404Z,28.27
2023-03-17T15:02:36.298Z,30.12
2023-03-17T15:05:55.069Z,31.93
2023-03-17T15:09:00.506Z,36.38
2023-03-17T15:12:06.946Z,44.08
2023-03-17T15:15:22.488Z,42.40
2023-03-17T15:18:30.240Z,39.75
2023-03-17T15:21:48.601Z,42.95
2023-03-17T15:24:56.083Z,40.67
2023-03-17T15:28:01.937Z,44.98
2023-03-17T15:31:11.072Z,45.75
2023-03-17T15:34:16.828Z,45.17
2023-03-17T15:37:42.295Z,50.80
2023-03-17T15:40:47.404Z,53.63
2023-03-17T15:43:52.664Z,50.05
2023-03-17T15:46:57.986Z,53.25
2023-03-17T15:50:03.442Z,51.65
2023-03-17T15:53:09.299Z,52.80
2023-03-17T15:56:16.526Z,63.63
2023-03-17T15:59:21.787Z,54.27
2023-03-17T16:02:46.414Z,52.93
2023-03-17T16:05:46.022Z,51.95
2023-03-17T16:08:52.885Z,55.65
2023-03-17T16:11:59.607Z,57.67
2023-03-17T16:15:13.194Z,54.18
2023-03-17T16:18:14.791Z,45.50
2023-03-17T16:21:20.797Z,54.38
2023-03-17T16:24:33.760Z,59.50
2023-03-17T16:27:40.245Z,49.20
2023-03-17T16:30:47.852Z,47.67
2023-03-17T16:33:57.544Z,47.13
2023-03-17T16:37:04.923Z,49.80
2023-03-17T16:40:13.239Z,50.30
2023-03-17T16:43:38.536Z,51.83
2023-03-17T16:46:45.983Z,48.50
2023-03-17T16:49:51.771Z,48.68
2023-03-17T16:52:58.219Z,40.25
2023-03-17T16:56:05.866Z,42.80
2023-03-17T16:59:12.073Z,44.83
2023-03-17T17:02:17.167Z,45.17
2023-03-17T17:05:38.017Z,47.45
2023-03-17T17:08:43.418Z,34.05
2023-03-17T17:11:48.214Z,37.42
2023-03-17T17:14:54.535Z,36.05
2023-03-17T17:18:03.577Z,39.20
2023-03-17T17:21:10.509Z,36.23
2023-03-17T17:24:15.872Z,33.60
2023-03-17T17:27:21.835Z,41.10
2023-03-17T17:30:33.323Z,32.40
2023-03-17T17:33:40.272Z,32.75
2023-03-17T17:36:45.718Z,34.58
2023-03-17T17:39:52.595Z,28.95
2023-03-17T17:42:58.476Z,29.72
2023-03-17T17:46:04.536Z,33.00
2023-03-17T17:49:11.002Z,27.45
2023-03-17T17:52:09.433Z,30.92
2023-03-17T17:54:55.024Z,31.65
2023-03-17T17:57:48.111Z,30.20
2023-03-17T18:00:34.459Z,33.20
2023-03-17T18:03:29.778Z,28.70
2023-03-17T18:06:17.445Z,33.08
2023-03-17T18:09:09.966Z,41.00
2023-03-17T18:11:57.905Z,45.90
2023-03-17T18:14:52.743Z,60.33
2023-03-17T18:17:38.316Z,62.85
2023-03-17T18:20:32.276Z,82.72
2023-03-17T18:23:17.932Z,63.00
2023-03-17T18:26:12.950Z,75.87
2023-03-17T18:29:19.004Z,52.05
2023-03-17T18:32:25.290Z,64.67
2023-03-17T18:35:34.439Z,59.53
2023-03-17T18:38:40.874Z,57.40
2023-03-17T18:41:47.241Z,60.55
2023-03-17T18:44:53.021Z,85.55
2023-03-17T18:47:59.875Z,89.75
2023-03-17T18:51:07.096Z,73.17
2023-03-17T18:54:12.717Z,94.20
2023-03-17T18:57:11.755Z,101.10
2023-03-17T19:00:17.392Z,67.70
2023-03-17T19:03:24.385Z,75.67
2023-03-17T19:06:36.561Z,75.05
2023-03-17T19:09:42.381Z,98.30
2023-03-17T19:12:49.664Z,100.80
2023-03-17T19:15:55.079Z,101.92
2023-03-17T19:19:00.268Z,97.12
2023-03-17T19:22:00.286Z,107.12
2023-03-17T19:25:07.741Z,103.92
2023-03-17T19:28:13.390Z,112.97
2023-03-17T19:31:20.789Z,115.92
2023-03-17T19:34:27.509Z,107.00
2023-03-17T19:37:33.514Z,129.03
2023-03-17T19:40:40.163Z,150.30
2023-03-17T19:43:46.655Z,104.20
2023-03-17T19:46:53.280Z,115.80
2023-03-17T19:49:59.764Z,106.58
2023-03-17T19:53:04.876Z,105.65
2023-03-17T19:56:11.751Z,152.17
2023-03-17T19:59:17.488Z,119.60
2023-03-17T20:02:22.758Z,105.60
2023-03-17T20:05:28.198Z,137.20
2023-03-17T20:08:34.174Z,116.65
2023-03-17T20:11:42.921Z,110.32
2023-03-17T20:14:49.308Z,132.30
2023-03-17T20:17:55.143Z,122.78
2023-03-17T20:21:07.279Z,104.17
2023-03-17T20:24:12.007Z,103.45
2023-03-17T20:27:19.920Z,147.93
2023-03-17T20:30:26.585Z,99.15
2023-03-17T20:33:32.521Z,124.38
2023-03-17T20:36:38.730Z,100.02
2023-03-17T20:39:45.661Z,112.45
2023-03-17T20:42:51.614Z,105.03
2023-03-17T20:45:59.723Z,89.70
2023-03-17T20:49:07.965Z,111.35
2023-03-17T20:52:16.587Z,112.03
2023-03-17T20:55:23.968Z,111.70
2023-03-17T20:58:29.194Z,100.33
2023-03-17T21:01:35.837Z,110.80
2023-03-17T21:04:41.569Z,97.95
2023-03-17T21:07:48.001Z,106.25
2023-03-17T21:10:54.157Z,96.57
2023-03-17T21:14:00.724Z,83.60
2023-03-17T21:17:07.887Z,98.25
2023-03-17T21:20:16.315Z,83.35
2023-03-17T21:23:22.456Z,60.58
2023-03-17T21:26:27.067Z,69.72
2023-03-17T21:29:33.077Z,53.78
2023-03-17T21:32:37.802Z,61.15
2023-03-17T21:35:44.239Z,44.08
2023-03-17T21:38:51.674Z,35.68
2023-03-17T21:41:57.333Z,33.18
2023-03-17T21:45:02.979Z,31.57
2023-03-17T21:48:09.256Z,32.70
2023-03-17T21:51:14.863Z,31.68
2023-03-17T21:54:20.577Z,29.65
2023-03-17T21:57:26.263Z,24.57
2023-03-17T22:00:39.398Z,28.30
2023-03-17T22:03:40.068Z,26.40
2023-03-17T22:06:45.739Z,33.85
2023-03-17T22:09:52.346Z,29.67
2023-03-17T22:12:59.239Z,33.55
2023-03-17T22:16:06.148Z,35.73
2023-03-17T22:19:12.354Z,29.07
2023-03-17T22:22:17.985Z,28.20
2023-03-17T22:25:24.426Z,31.80
2023-03-17T22:28:31.048Z,34.95
2023-03-17T22:31:39.366Z,32.03
2023-03-17T22:34:43.936Z,24.20
2023-03-17T22:37:49.223Z,27.22
2023-03-17T22:40:54.358Z,25.82
2023-03-17T22:44:00.767Z,24.60
2023-03-17T22:47:06.419Z,23.92
2023-03-17T22:50:14.101Z,26.17
2023-03-17T22:53:19.705Z,27.45
2023-03-17T22:56:26.558Z,25.08
2023-03-17T22:59:32.738Z,25.57
2023-03-17T23:02:38.055Z,25.77
2023-03-17T23:05:43.603Z,27.15
2023-03-17T23:08:52.163Z,27.05
2023-03-17T23:11:52.546Z,24.12
2023-03-17T23:14:59.832Z,29.35
2023-03-17T23:18:06.158Z,27.17
2023-03-17T23:21:13.745Z,26.87
2023-03-17T23:24:21.213Z,27.70
2023-03-17T23:27:27.007Z,27.73
2023-03-17T23:30:32.101Z,32.65
2023-03-17T23:33:38.761Z,30.37
2023-03-17T23:36:45.681Z,29.32
2023-03-17T23:39:50.399Z,28.62
2023-03-17T23:42:57.041Z,31.52
2023-03-17T23:46:07.780Z,32.28
2023-03-17T23:49:14.378Z,29.00
2023-03-17T23:52:21.005Z,30.35
2023-03-17T23:55:25.961Z,31.27
2023-03-17T23:58:32.106Z,33.08
